KRCX

Rusk County Airport

Ladysmith, Wisconsin, USA
METAR KRCX 230935Z AUTO 31005KT 10SM OVC029 03/00 A3026 RMK AO2 T00300000
Observed Flight Rules
Oct-23 @ 09:35 UTC (22 minutes ago) Marginal Visual Flight Rules
Wind Visibility Clouds
310° at 5 knots 10 miles
  • Overcast at 2,900' AGL
Temperatures Readings
Current 3°C / 37°F
Dewpoint 0°C / 32°F
Humidity 81%
Altimeter 30.26" Hg
Pressure 1025 hPa
Elevation 377
METAR KRCX 230935Z AUTO 31005KT 10SM OVC029 03/00 A3026 RMK AO2 T00300000
Observed Flight Rules
Oct-23 @ 09:35 UTC
(22 minutes ago)
MVFR
Wind Visibility
310° at 5 knots 10 miles
Clouds
  • Overcast at 2,900' AGL
Temperature Dewpoint
3°C / 37°F 0°C / 32°F
Humidity Altimeter Pressure
81% 30.26" Hg 1025 hPa